PWSweather.com
Personal Weather Stations
Station Observations
WISCHPK61
Green Bay Schmitt Park, Green Bay, WI 54311

Green Bay Schmitt ParkGreen Bay, WI 54311

Lat: 44.514277, Lon: -87.935067

Elevation: 735

Station Type: Acu Rite Pro Weather Center model 02032C

http://greenbayweathercam.com

High Low Average
Temperature 48.0°F8.9°C 26.1°F-3.3°C 33.9°F1.1°C
Dew Point 47.7°F8.7°C 25.9°F-3.4°C 33.7°F0.9°C
Winds 2.3 mph 3.7 kmh Calm Calm Calm SSWCalm SSW
Wind Gusts 2.3 mph3.7 kmh -- --
Humidity 99% 99% 99%
Pressure 29.36 in994.2 mb 28.97 in981.0 mb -
Precipitation 0.48 in12.2 mm - -
Hour Temp Dew Point Humidity Winds Wind Gusts Pressure Precip Precip Rate Daily Precip Total
12:00 AM 28.2°F-2.1°C 28.0°F-2.2°C 99% Calm Calm -- 28.99 in981.7 mb - 0.00 in0.0 mm 0.80 in20.3 mm
01:00 AM 27.9°F-2.3°C 27.7°F-2.4°C 99% Calm Calm -- 28.98 in981.4 mb - 0.00 in0.0 mm 0.00 in0.0 mm
02:00 AM 27.7°F-2.4°C 27.5°F-2.5°C 99% Calm Calm -- 28.99 in981.7 mb - 0.00 in0.0 mm 0.00 in0.0 mm
03:00 AM 27.1°F-2.7°C 26.9°F-2.8°C 99% Calm Calm -- 28.99 in981.7 mb - 0.00 in0.0 mm 0.00 in0.0 mm
04:00 AM 27.1°F-2.7°C 26.9°F-2.8°C 99% Calm Calm -- 28.99 in981.7 mb - 0.00 in0.0 mm 0.00 in0.0 mm
05:00 AM 26.6°F-3.0°C 26.4°F-3.1°C 99% Calm Calm -- 28.98 in981.4 mb - 0.00 in0.0 mm 0.00 in0.0 mm
06:00 AM 26.6°F-3.0°C 26.4°F-3.1°C 99% Calm Calm -- 28.97 in981.0 mb - 0.00 in0.0 mm 0.00 in0.0 mm
07:00 AM 26.4°F-3.1°C 26.1°F-3.3°C 99% Calm Calm -- 28.99 in981.7 mb - 0.00 in0.0 mm 0.00 in0.0 mm
08:00 AM 26.1°F-3.3°C 25.9°F-3.4°C 99% Calm Calm 1.2 mph1.9 kmh 28.99 in981.7 mb - 0.00 in0.0 mm 0.00 in0.0 mm
09:00 AM 26.4°F-3.1°C 26.2°F-3.2°C 99% Calm Calm -- 29.02 in982.7 mb - 0.00 in0.0 mm 0.00 in0.0 mm
10:00 AM 29.7°F-1.3°C 29.5°F-1.4°C 99% Calm Calm -- 29.02 in982.7 mb - 0.00 in0.0 mm 0.00 in0.0 mm
11:00 AM 34.5°F1.4°C 34.2°F1.2°C 99% Calm Calm -- 29.02 in982.7 mb - 0.00 in0.0 mm 0.00 in0.0 mm
12:00 PM 39.4°F4.1°C 39.1°F3.9°C 99% Calm Calm -- 29.02 in982.7 mb - 0.00 in0.0 mm 0.00 in0.0 mm
01:00 PM 45.6°F7.6°C 45.4°F7.4°C 99% Calm Calm -- 29.01 in982.4 mb - 0.06 in1.5 mm 0.06 in1.5 mm
02:00 PM 48.0°F8.9°C 47.7°F8.7°C 99% Calm Calm -- 29.00 in982.1 mb - 0.24 in6.1 mm 0.29 in7.4 mm
03:00 PM 45.7°F7.6°C 45.4°F7.4°C 99% Calm Calm -- 29.02 in982.7 mb - 0.12 in3.0 mm 0.41 in10.4 mm
04:00 PM 45.9°F7.7°C 45.6°F7.6°C 99% Calm Calm -- 29.04 in983.4 mb - 0.04 in1.0 mm 0.45 in11.4 mm
05:00 PM 42.4°F5.8°C 42.1°F5.6°C 99% Calm Calm -- 29.07 in984.4 mb - 0.02 in0.5 mm 0.47 in11.9 mm
06:00 PM 37.7°F3.2°C 37.5°F3.1°C 99% Calm Calm -- 29.12 in986.1 mb - 0.00 in0.0 mm 0.47 in11.9 mm
07:00 PM 37.6°F3.1°C 37.3°F2.9°C 99% 2.3 mph E3.7 kmh E 2.3 mph3.7 kmh 29.16 in987.5 mb - 0.00 in0.0 mm 0.47 in11.9 mm
08:00 PM 36.3°F2.4°C 36.0°F2.2°C 99% Calm Calm -- 29.22 in989.5 mb - 0.01 in0.3 mm 0.48 in12.2 mm
09:00 PM 34.9°F1.6°C 34.6°F1.4°C 99% Calm Calm -- 29.26 in990.9 mb - 0.00 in0.0 mm 0.48 in12.2 mm
10:00 PM 32.2°F0.1°C 32.0°F0.0°C 99% Calm Calm -- 29.29 in991.9 mb - 0.00 in0.0 mm 0.48 in12.2 mm
11:00 PM 31.3°F-0.4°C 31.1°F-0.5°C 99% Calm Calm -- 29.32 in992.9 mb - 0.00 in0.0 mm 0.48 in12.2 mm